createdAt,value
2023-01-29T00:02:45.211Z,0.31
2023-01-29T00:05:47.681Z,0.17
2023-01-29T00:08:49.976Z,0.20
2023-01-29T00:11:54.927Z,0.21
2023-01-29T00:14:56.911Z,0.21
2023-01-29T00:18:00.567Z,0.27
2023-01-29T00:21:03.512Z,0.13
2023-01-29T00:24:05.664Z,0.08
2023-01-29T00:27:08.161Z,0.10
2023-01-29T00:30:13.472Z,0.03
2023-01-29T00:33:15.559Z,0.04
2023-01-29T00:36:19.482Z,0.01
2023-01-29T00:39:31.455Z,0.03
2023-01-29T00:43:00.008Z,-0.04
2023-01-29T00:46:02.319Z,-0.05
2023-01-29T00:49:06.990Z,-0.10
2023-01-29T00:52:27.243Z,-0.11
2023-01-29T00:55:29.321Z,-0.11
2023-01-29T00:58:34.535Z,-0.14
2023-01-29T01:01:55.709Z,-0.04
2023-01-29T01:04:58.241Z,0.01
2023-01-29T01:08:00.377Z,0.01
2023-01-29T01:11:05.633Z,0.02
2023-01-29T01:14:08.331Z,-0.02
2023-01-29T01:17:10.542Z,-0.11
2023-01-29T01:20:13.676Z,-0.12
2023-01-29T01:23:16.130Z,-0.11
2023-01-29T01:26:21.253Z,-0.07
2023-01-29T01:29:23.451Z,-0.08
2023-01-29T01:32:26.487Z,-0.24
2023-01-29T01:35:28.570Z,-0.29
2023-01-29T01:38:30.637Z,-0.28
2023-01-29T01:41:33.207Z,-0.35
2023-01-29T01:45:04.071Z,-0.38
2023-01-29T01:48:35.403Z,-0.41
2023-01-29T01:51:43.462Z,-0.26
2023-01-29T01:54:46.536Z,-0.26
2023-01-29T01:57:53.975Z,-0.39
2023-01-29T02:00:56.829Z,-0.36
2023-01-29T02:04:32.440Z,-0.40
2023-01-29T02:07:59.516Z,-0.46
2023-01-29T02:11:02.528Z,-0.45
2023-01-29T02:14:05.418Z,-0.44
2023-01-29T02:17:14.002Z,-0.43
2023-01-29T02:20:26.221Z,-0.52
2023-01-29T02:23:45.446Z,-0.61
2023-01-29T02:27:17.038Z,-0.66
2023-01-29T02:30:34.046Z,-0.86
2023-01-29T02:34:01.405Z,-0.78
2023-01-29T02:37:10.658Z,-0.85
2023-01-29T02:40:40.338Z,-0.85
2023-01-29T02:43:54.151Z,-0.79
2023-01-29T02:47:23.124Z,-0.78
2023-01-29T02:50:39.162Z,-0.75
2023-01-29T02:53:56.931Z,-0.74
2023-01-29T02:57:29.407Z,-0.83
2023-01-29T03:00:39.671Z,-0.66
2023-01-29T03:03:45.919Z,-0.83
2023-01-29T03:07:01.228Z,-1.00
2023-01-29T03:10:07.752Z,-0.90
2023-01-29T03:13:21.485Z,-1.06
2023-01-29T03:16:42.405Z,-0.89
2023-01-29T03:19:49.996Z,-0.87
2023-01-29T03:23:07.140Z,-0.95
2023-01-29T03:26:28.430Z,-0.98
2023-01-29T03:29:53.940Z,-0.90
2023-01-29T03:33:05.060Z,-0.97
2023-01-29T03:36:17.664Z,-1.03
2023-01-29T03:39:19.952Z,-0.93
2023-01-29T03:42:43.936Z,-0.87
2023-01-29T03:45:55.335Z,-0.86
2023-01-29T03:49:27.263Z,-0.92
2023-01-29T03:52:56.063Z,-0.91
2023-01-29T03:56:19.473Z,-0.96
2023-01-29T03:59:44.752Z,-1.06
2023-01-29T04:03:16.404Z,-1.02
2023-01-29T04:06:30.103Z,-1.01
2023-01-29T04:09:45.716Z,-0.94
2023-01-29T04:13:01.213Z,-0.83
2023-01-29T04:16:06.794Z,-0.81
2023-01-29T04:19:38.766Z,-0.96
2023-01-29T04:22:45.122Z,-0.75
2023-01-29T04:25:55.580Z,-0.68
2023-01-29T04:29:06.642Z,-0.67
2023-01-29T04:32:22.300Z,-0.91
2023-01-29T04:36:06.433Z,-0.91
2023-01-29T04:39:33.400Z,-0.88
2023-01-29T04:43:05.451Z,-0.89
2023-01-29T04:46:21.717Z,-0.86
2023-01-29T04:49:38.787Z,-0.95
2023-01-29T04:52:52.695Z,-0.95
2023-01-29T04:56:21.446Z,-0.96
2023-01-29T04:59:58.321Z,-0.92
2023-01-29T05:03:04.589Z,-0.91
2023-01-29T05:06:08.511Z,-1.04
2023-01-29T05:09:14.734Z,-1.09
2023-01-29T05:12:18.827Z,-1.22
2023-01-29T05:15:27.932Z,-1.32
2023-01-29T05:18:31.107Z,-1.39
2023-01-29T05:21:33.131Z,-1.52
2023-01-29T05:24:36.287Z,-1.66
2023-01-29T05:27:57.092Z,-1.69
2023-01-29T05:30:59.727Z,-1.83
2023-01-29T05:34:02.266Z,-1.79
2023-01-29T05:37:04.947Z,-1.65
2023-01-29T05:40:10.561Z,-1.61
2023-01-29T05:43:21.316Z,-1.71
2023-01-29T05:46:23.494Z,-1.84
2023-01-29T05:49:25.766Z,-1.77
2023-01-29T05:52:27.764Z,-1.82
2023-01-29T05:55:30.419Z,-1.78
2023-01-29T05:58:33.818Z,-1.73
2023-01-29T06:01:39.256Z,-1.62
2023-01-29T06:04:41.386Z,-1.57
2023-01-29T06:07:45.610Z,-1.72
2023-01-29T06:10:48.135Z,-1.61
2023-01-29T06:13:50.146Z,-1.65
2023-01-29T06:16:52.173Z,-1.58
2023-01-29T06:19:54.520Z,-1.60
2023-01-29T06:22:56.942Z,-1.58
2023-01-29T06:26:09.377Z,-1.74
2023-01-29T06:29:11.384Z,-1.62
2023-01-29T06:32:13.750Z,-1.57
2023-01-29T06:35:16.485Z,-1.61
2023-01-29T06:38:18.524Z,-1.81
2023-01-29T06:41:26.028Z,-1.60
2023-01-29T06:44:28.092Z,-1.59
2023-01-29T06:47:30.078Z,-1.70
2023-01-29T06:50:32.141Z,-1.78
2023-01-29T06:53:35.915Z,-1.88
2023-01-29T06:56:40.850Z,-1.88
2023-01-29T06:59:43.355Z,-1.88
2023-01-29T07:02:45.486Z,-1.78
2023-01-29T07:05:53.240Z,-1.88
2023-01-29T07:08:55.855Z,-1.99
2023-01-29T07:11:57.924Z,-1.85
2023-01-29T07:14:59.896Z,-1.83
2023-01-29T07:18:04.890Z,-1.93
2023-01-29T07:21:07.753Z,-1.90
2023-01-29T07:24:09.926Z,-1.72
2023-01-29T07:27:12.038Z,-1.67
2023-01-29T07:30:14.907Z,-1.65
2023-01-29T07:33:17.059Z,-1.68
2023-01-29T07:36:19.459Z,-1.57
2023-01-29T07:39:21.532Z,-1.65
2023-01-29T07:42:23.769Z,-1.65
2023-01-29T07:45:25.730Z,-1.56
2023-01-29T07:48:27.752Z,-1.52
2023-01-29T07:51:31.173Z,-1.34
2023-01-29T07:54:33.277Z,-1.15
2023-01-29T07:57:36.023Z,-1.06
2023-01-29T08:00:38.276Z,-1.04
2023-01-29T08:03:40.771Z,-1.04
2023-01-29T08:06:42.819Z,-1.12
2023-01-29T08:09:45.121Z,-1.04
2023-01-29T08:12:48.180Z,-0.98
2023-01-29T08:15:53.437Z,-1.16
2023-01-29T08:18:55.472Z,-1.05
2023-01-29T08:21:57.414Z,-1.00
2023-01-29T08:25:08.298Z,-1.07
2023-01-29T08:28:12.836Z,-1.02
2023-01-29T08:31:20.842Z,-1.00
2023-01-29T08:34:23.191Z,-1.39
2023-01-29T08:37:25.281Z,-0.90
2023-01-29T08:40:33.757Z,-1.11
2023-01-29T08:43:37.347Z,-1.00
2023-01-29T08:46:42.009Z,-0.95
2023-01-29T08:49:44.212Z,-0.97
2023-01-29T08:52:46.988Z,-1.06
2023-01-29T08:55:49.411Z,-0.91
2023-01-29T08:58:51.552Z,-0.73
2023-01-29T09:01:53.545Z,-0.65
2023-01-29T09:04:56.518Z,-0.77
2023-01-29T09:08:02.148Z,-0.73
2023-01-29T09:11:04.266Z,-0.66
2023-01-29T09:14:07.310Z,-0.62
2023-01-29T09:17:10.171Z,-0.46
2023-01-29T09:20:12.626Z,-0.34
2023-01-29T09:23:16.820Z,-0.16
2023-01-29T09:26:18.981Z,-0.07
2023-01-29T09:29:21.033Z,0.11
2023-01-29T09:32:49.729Z,0.04
2023-01-29T09:35:48.270Z,0.02
2023-01-29T09:38:50.324Z,-0.28
2023-01-29T09:42:25.912Z,-0.32
2023-01-29T09:45:32.064Z,-0.48
2023-01-29T09:48:36.610Z,-0.45
2023-01-29T09:51:46.932Z,-0.48
2023-01-29T09:55:20.546Z,-0.53
2023-01-29T09:58:41.125Z,-0.35
2023-01-29T10:02:22.652Z,-0.28
2023-01-29T10:05:36.754Z,-0.16
2023-01-29T10:08:52.566Z,-0.09
2023-01-29T10:12:12.201Z,-0.09
2023-01-29T10:15:20.832Z,-0.08
2023-01-29T10:18:55.739Z,0.00
2023-01-29T10:22:29.680Z,0.11
2023-01-29T10:25:36.246Z,0.43
2023-01-29T10:28:50.473Z,0.54
2023-01-29T10:31:59.651Z,0.60
2023-01-29T10:35:28.329Z,0.63
2023-01-29T10:38:48.746Z,0.64
2023-01-29T10:42:21.090Z,0.68
2023-01-29T10:45:35.415Z,0.71
2023-01-29T10:48:44.710Z,0.77
2023-01-29T10:52:02.214Z,0.60
2023-01-29T10:55:28.468Z,0.34
2023-01-29T10:58:34.379Z,0.49
2023-01-29T11:01:36.493Z,0.33
2023-01-29T11:04:42.310Z,0.52
2023-01-29T11:07:45.157Z,0.59
2023-01-29T11:10:58.719Z,0.69
2023-01-29T11:14:07.254Z,0.67
2023-01-29T11:17:23.415Z,0.71
2023-01-29T11:20:31.204Z,0.72
2023-01-29T11:23:34.278Z,0.89
2023-01-29T11:26:41.629Z,0.97
2023-01-29T11:29:46.425Z,1.25
2023-01-29T11:33:14.352Z,1.32
2023-01-29T11:36:40.134Z,1.56
2023-01-29T11:39:47.418Z,1.37
2023-01-29T11:42:50.787Z,1.29
2023-01-29T11:45:57.178Z,1.27
2023-01-29T11:49:09.917Z,1.19
2023-01-29T11:52:25.114Z,0.93
2023-01-29T11:55:41.005Z,0.88
2023-01-29T11:58:56.124Z,0.75
2023-01-29T12:02:16.492Z,0.85
2023-01-29T12:05:22.561Z,1.03
2023-01-29T12:08:28.183Z,0.81
2023-01-29T12:11:33.733Z,1.13
2023-01-29T12:14:36.666Z,0.89
2023-01-29T12:17:51.936Z,1.01
2023-01-29T12:21:03.929Z,1.06
2023-01-29T12:24:24.971Z,0.90
2023-01-29T12:27:49.746Z,0.82
2023-01-29T12:31:19.211Z,0.98
2023-01-29T12:34:48.392Z,1.44
2023-01-29T12:38:04.829Z,1.42
2023-01-29T12:41:37.537Z,1.42
2023-01-29T12:44:59.880Z,1.67
2023-01-29T12:48:08.856Z,1.84
2023-01-29T12:51:24.527Z,1.91
2023-01-29T12:54:42.484Z,1.78
2023-01-29T12:57:54.345Z,1.43
2023-01-29T13:01:03.541Z,1.52
2023-01-29T13:04:33.123Z,1.41
2023-01-29T13:07:42.527Z,1.30
2023-01-29T13:10:50.852Z,1.07
2023-01-29T13:14:19.015Z,1.05
2023-01-29T13:17:43.040Z,1.29
2023-01-29T13:20:48.926Z,1.35
2023-01-29T13:24:03.779Z,1.27
2023-01-29T13:27:06.820Z,1.17
2023-01-29T13:30:26.400Z,1.30
2023-01-29T13:33:29.557Z,1.47
2023-01-29T13:36:32.947Z,1.53
2023-01-29T13:39:45.730Z,1.61
2023-01-29T13:42:50.447Z,1.49
2023-01-29T13:45:54.372Z,1.65
2023-01-29T13:48:58.888Z,1.51
2023-01-29T13:52:18.088Z,1.62
2023-01-29T13:55:26.556Z,1.68
2023-01-29T13:58:32.377Z,1.41
2023-01-29T14:01:48.301Z,1.27
2023-01-29T14:04:52.406Z,1.17
2023-01-29T14:07:57.688Z,1.05
2023-01-29T14:11:18.417Z,0.84
2023-01-29T14:14:48.312Z,0.84
2023-01-29T14:18:09.157Z,0.92
2023-01-29T14:21:17.331Z,0.88
2023-01-29T14:24:25.159Z,0.80
2023-01-29T14:27:28.068Z,0.65
2023-01-29T14:30:34.867Z,0.54
2023-01-29T14:33:43.425Z,0.56
2023-01-29T14:36:56.072Z,0.42
2023-01-29T14:40:09.077Z,0.39
2023-01-29T14:43:24.403Z,0.45
2023-01-29T14:46:48.105Z,0.40
2023-01-29T14:50:02.829Z,0.36
2023-01-29T14:53:20.581Z,0.31
2023-01-29T14:56:35.821Z,0.13
2023-01-29T15:00:01.393Z,0.34
2023-01-29T15:03:12.436Z,0.24
2023-01-29T15:06:29.671Z,0.17
2023-01-29T15:09:37.331Z,-0.04
2023-01-29T15:12:49.926Z,-0.21
2023-01-29T15:16:27.955Z,-0.30
2023-01-29T15:19:37.153Z,-0.39
2023-01-29T15:22:46.937Z,-0.48
2023-01-29T15:25:53.667Z,-0.53
2023-01-29T15:29:04.683Z,-0.60
2023-01-29T15:32:08.698Z,-0.65
2023-01-29T15:35:20.596Z,-0.65
2023-01-29T15:38:27.213Z,-0.63
2023-01-29T15:41:30.425Z,-0.68
2023-01-29T15:44:38.313Z,-0.67
2023-01-29T15:47:44.080Z,-0.63
2023-01-29T15:50:47.224Z,-0.51
2023-01-29T15:54:00.173Z,-0.52
2023-01-29T15:57:04.722Z,-0.48
2023-01-29T16:00:20.267Z,-0.57
2023-01-29T16:03:25.552Z,-0.50
2023-01-29T16:06:31.959Z,-0.76
2023-01-29T16:09:36.231Z,-0.51
2023-01-29T16:12:58.108Z,-0.54
2023-01-29T16:16:22.424Z,-0.88
2023-01-29T16:19:30.147Z,-0.73
2023-01-29T16:22:38.820Z,-0.72
2023-01-29T16:25:43.925Z,-0.71
2023-01-29T16:28:48.983Z,-0.74
2023-01-29T16:32:00.876Z,-0.73
2023-01-29T16:35:05.805Z,-0.75
2023-01-29T16:38:30.523Z,-0.75
2023-01-29T16:41:39.591Z,-0.80
2023-01-29T16:44:53.115Z,-0.76
2023-01-29T16:48:23.227Z,-0.73
2023-01-29T16:51:32.506Z,-0.77
2023-01-29T16:54:44.081Z,-0.90
2023-01-29T16:57:54.537Z,-0.89
2023-01-29T17:01:04.560Z,-0.88
2023-01-29T17:04:20.131Z,-0.84
2023-01-29T17:07:24.910Z,-0.86
2023-01-29T17:10:29.983Z,-0.91
2023-01-29T17:13:44.491Z,-0.97
2023-01-29T17:16:58.405Z,-0.94
2023-01-29T17:20:14.796Z,-0.95
2023-01-29T17:23:18.074Z,-0.95
2023-01-29T17:26:26.539Z,-0.98
2023-01-29T17:29:32.596Z,-1.05
2023-01-29T17:32:44.591Z,-1.07
2023-01-29T17:35:50.696Z,-1.20
2023-01-29T17:38:54.114Z,-1.16
2023-01-29T17:41:59.807Z,-1.10
2023-01-29T17:45:05.067Z,-1.06
2023-01-29T17:48:32.937Z,-1.08
2023-01-29T17:51:36.544Z,-1.07
2023-01-29T17:54:40.519Z,-1.20
2023-01-29T17:57:44.047Z,-1.08
2023-01-29T18:00:50.035Z,-1.20
2023-01-29T18:03:52.533Z,-1.22
2023-01-29T18:06:57.983Z,-1.18
2023-01-29T18:10:01.149Z,-1.24
2023-01-29T18:13:04.630Z,-1.29
2023-01-29T18:16:08.301Z,-1.21
2023-01-29T18:19:23.376Z,-1.12
2023-01-29T18:22:26.386Z,-1.10
2023-01-29T18:25:32.896Z,-1.04
2023-01-29T18:28:36.084Z,-1.12
2023-01-29T18:31:39.089Z,-1.10
2023-01-29T18:34:42.333Z,-1.14
2023-01-29T18:37:45.869Z,-1.16
2023-01-29T18:40:51.625Z,-1.14
2023-01-29T18:43:54.892Z,-1.21
2023-01-29T18:46:57.952Z,-1.20
2023-01-29T18:50:01.177Z,-1.26
2023-01-29T18:53:05.079Z,-1.26
2023-01-29T18:56:08.837Z,-1.26
2023-01-29T18:59:12.017Z,-1.30
2023-01-29T19:02:19.568Z,-1.43
2023-01-29T19:05:24.257Z,-1.27
2023-01-29T19:08:27.657Z,-1.21
2023-01-29T19:11:31.250Z,-1.33
2023-01-29T19:14:36.918Z,-1.31
2023-01-29T19:17:40.116Z,-1.38
2023-01-29T19:20:44.144Z,-1.38
2023-01-29T19:23:48.969Z,-1.41
2023-01-29T19:26:52.689Z,-1.40
2023-01-29T19:29:56.994Z,-1.38
2023-01-29T19:33:04.058Z,-1.28
2023-01-29T19:36:09.770Z,-1.26
2023-01-29T19:39:13.060Z,-1.27
2023-01-29T19:42:17.772Z,-1.31
2023-01-29T19:45:48.881Z,-1.28
2023-01-29T19:48:51.906Z,-1.26
2023-01-29T19:51:59.503Z,-1.31
2023-01-29T19:55:06.086Z,-1.25
2023-01-29T19:58:10.453Z,-1.25
2023-01-29T20:01:21.805Z,-1.27
2023-01-29T20:04:28.905Z,-1.19
2023-01-29T20:07:32.361Z,-1.38
2023-01-29T20:10:35.198Z,-1.11
2023-01-29T20:13:41.340Z,-1.09
2023-01-29T20:16:44.785Z,-1.05
2023-01-29T20:19:48.763Z,-1.30
2023-01-29T20:22:53.978Z,-1.04
2023-01-29T20:26:05.683Z,-1.12
2023-01-29T20:29:11.956Z,-1.22
2023-01-29T20:32:20.521Z,-1.27
2023-01-29T20:35:23.227Z,-1.14
2023-01-29T20:38:33.876Z,-1.19
2023-01-29T20:41:42.453Z,-1.20
2023-01-29T20:44:45.967Z,-1.15
2023-01-29T20:47:51.542Z,-1.25
2023-01-29T20:50:58.448Z,-1.17
2023-01-29T20:54:02.038Z,-1.31
2023-01-29T20:57:05.695Z,-1.35
2023-01-29T21:00:09.761Z,-1.25
2023-01-29T21:03:12.938Z,-1.17
2023-01-29T21:06:17.432Z,-1.20
2023-01-29T21:09:20.995Z,-1.09
2023-01-29T21:12:24.427Z,-1.08
2023-01-29T21:15:28.592Z,-1.15
2023-01-29T21:18:33.222Z,-1.08
2023-01-29T21:21:35.832Z,-1.13
2023-01-29T21:24:42.235Z,-1.12
2023-01-29T21:27:45.151Z,-1.07
2023-01-29T21:30:48.593Z,-1.10
2023-01-29T21:33:51.182Z,-1.35
2023-01-29T21:36:55.784Z,-1.27
2023-01-29T21:40:00.005Z,-1.45
2023-01-29T21:43:13.033Z,-1.51
2023-01-29T21:46:16.430Z,-1.37
2023-01-29T21:49:19.148Z,-1.34
2023-01-29T21:52:24.249Z,-1.37
2023-01-29T21:55:30.025Z,-1.36
2023-01-29T21:58:33.106Z,-1.32
2023-01-29T22:01:37.225Z,-1.41
2023-01-29T22:04:41.218Z,-1.25
2023-01-29T22:07:45.153Z,-1.34
2023-01-29T22:10:50.932Z,-1.36
2023-01-29T22:13:53.574Z,-1.39
2023-01-29T22:16:56.176Z,-1.52
2023-01-29T22:19:58.745Z,-1.56
2023-01-29T22:23:01.472Z,-1.64
2023-01-29T22:26:09.503Z,-1.64
2023-01-29T22:29:13.161Z,-2.07
2023-01-29T22:32:15.402Z,-1.67
2023-01-29T22:35:17.873Z,-1.79
2023-01-29T22:38:19.818Z,-1.72
2023-01-29T22:41:22.090Z,-1.63
2023-01-29T22:44:24.141Z,-1.61
2023-01-29T22:47:26.587Z,-1.63
2023-01-29T22:50:28.839Z,-1.61
2023-01-29T22:53:30.761Z,-1.58
2023-01-29T22:56:32.999Z,-1.56
2023-01-29T22:59:35.078Z,-1.52
2023-01-29T23:02:37.534Z,-1.54
2023-01-29T23:05:39.569Z,-1.44
2023-01-29T23:08:41.688Z,-1.36
2023-01-29T23:11:44.049Z,-1.36
2023-01-29T23:14:46.471Z,-1.36
2023-01-29T23:17:48.713Z,-1.44
2023-01-29T23:20:56.861Z,-1.38
2023-01-29T23:24:00.284Z,-1.22
2023-01-29T23:27:17.277Z,-1.09
2023-01-29T23:30:20.317Z,-1.10
2023-01-29T23:33:22.705Z,-1.09
2023-01-29T23:36:25.258Z,-1.08
2023-01-29T23:39:27.219Z,-1.09
2023-01-29T23:42:29.214Z,-1.09
2023-01-29T23:45:31.353Z,-1.10
2023-01-29T23:48:33.622Z,-1.04
2023-01-29T23:51:36.550Z,-1.02
2023-01-29T23:54:38.998Z,-1.06
2023-01-29T23:57:41.137Z,-1.13
